Time;durP1;ratioP1;P1;durP2;ratioP2;P2;SDS_P1;SDS_P2;PMS_P1;PMS_P2;Temp;Humidity;BMP_temperature;BMP_pressure;BME280_temperature;BME280_humidity;BME280_pressure;Samples;Min_cycle;Max_cycle;Signal;HPM_P1;HPM_P2
2023/09/27 00:00:19;;;;;;;6.32;4.28;;;;;;;24.87;54.33;99706.78;5094509;28;20024;-77
2023/09/27 00:02:44;;;;;;;6.20;3.95;;;;;;;24.87;54.25;99706.78;5093962;28;20036;-77
2023/09/27 00:05:11;;;;;;;6.88;4.13;;;;;;;24.87;54.15;99704.13;5094286;28;20032;-78
2023/09/27 00:07:38;;;;;;;6.70;4.20;;;;;;;24.86;54.38;99709.56;5094218;28;20040;-78
2023/09/27 00:10:05;;;;;;;6.30;4.60;;;;;;;24.86;54.03;99713.09;5094836;28;20023;-77
2023/09/27 00:12:32;;;;;;;6.70;4.18;;;;;;;24.85;54.30;99710.53;5094448;28;20614;-77
2023/09/27 00:14:58;;;;;;;6.20;4.22;;;;;;;24.85;54.28;99711.41;5094477;28;20024;-79
2023/09/27 00:17:23;;;;;;;7.78;4.50;;;;;;;24.84;54.36;99715.00;5092923;28;20480;-78
2023/09/27 00:19:49;;;;;;;7.07;4.63;;;;;;;24.82;54.30;99706.28;5094566;28;20016;-78
2023/09/27 00:22:15;;;;;;;6.63;4.28;;;;;;;24.83;54.49;99705.31;5094218;28;20161;-78
2023/09/27 00:24:41;;;;;;;6.82;4.18;;;;;;;24.83;54.27;99710.63;5094606;28;20111;-77
2023/09/27 00:27:07;;;;;;;6.97;4.35;;;;;;;24.82;54.37;99700.06;5094192;28;20483;-77
2023/09/27 00:29:34;;;;;;;6.25;4.28;;;;;;;24.81;54.48;99701.91;5094539;28;20020;-77
2023/09/27 00:31:59;;;;;;;7.30;4.88;;;;;;;24.79;54.17;99699.31;5093511;28;20379;-77
2023/09/27 00:34:25;;;;;;;7.00;4.50;;;;;;;24.80;54.69;99710.84;5094198;28;20027;-77
2023/09/27 00:36:50;;;;;;;6.72;4.50;;;;;;;24.78;54.18;99704.75;5094112;28;20020;-78
2023/09/27 00:39:17;;;;;;;6.93;4.20;;;;;;;24.77;54.37;99698.59;5094059;28;20032;-78
2023/09/27 00:41:42;;;;;;;7.20;4.30;;;;;;;24.75;54.74;99700.50;5094204;28;20024;-78
2023/09/27 00:44:08;;;;;;;7.13;4.57;;;;;;;24.75;54.38;99700.50;5094125;28;20433;-77
2023/09/27 00:46:34;;;;;;;6.97;4.63;;;;;;;24.74;54.59;99698.78;5093585;28;20414;-78
2023/09/27 00:49:00;;;;;;;6.90;4.70;;;;;;;24.72;54.69;99695.41;5094007;28;20028;-78
2023/09/27 00:51:26;;;;;;;7.22;4.82;;;;;;;24.72;54.26;99691.88;5094009;28;20077;-77
2023/09/27 00:53:54;;;;;;;7.32;4.97;;;;;;;24.72;54.76;99689.19;5093795;28;20028;-78
2023/09/27 00:56:20;;;;;;;6.18;4.57;;;;;;;24.71;54.34;99693.69;5094099;28;20027;-78
2023/09/27 00:58:45;;;;;;;7.07;4.22;;;;;;;24.71;54.80;99687.50;5114303;28;20383;-77
2023/09/27 01:01:12;;;;;;;7.72;4.25;;;;;;;24.70;54.46;99686.66;5114013;28;20106;-78
2023/09/27 01:03:38;;;;;;;6.25;4.18;;;;;;;24.70;54.29;99685.81;5114305;28;20668;-77
2023/09/27 01:06:04;;;;;;;6.95;4.63;;;;;;;24.66;54.80;99678.00;5113930;28;20103;-78
2023/09/27 01:08:29;;;;;;;7.80;4.80;;;;;;;24.67;54.49;99677.06;5114010;28;20051;-78
2023/09/27 01:10:55;;;;;;;6.68;4.60;;;;;;;24.65;54.55;99678.97;5098349;28;20023;-78
2023/09/27 01:13:20;;;;;;;6.55;4.20;;;;;;;24.64;54.54;99685.28;5093732;28;20024;-77
2023/09/27 01:15:46;;;;;;;6.78;4.22;;;;;;;24.64;54.55;99677.28;5093200;28;20027;-78
2023/09/27 01:18:11;;;;;;;5.70;3.97;;;;;;;24.62;54.87;99681.88;5092057;28;20016;-77
2023/09/27 01:20:37;;;;;;;7.82;4.25;;;;;;;24.63;54.61;99680.06;5093170;28;20016;-77
2023/09/27 01:23:03;;;;;;;7.10;4.57;;;;;;;24.62;54.26;99678.34;5092963;28;20103;-78
2023/09/27 01:25:30;;;;;;;6.20;4.22;;;;;;;24.60;54.58;99680.28;5093223;28;20527;-77
2023/09/27 01:28:05;;;;;;;6.40;4.47;;;;;;;24.59;54.51;99668.75;5093327;28;20064;-78
2023/09/27 01:30:33;;;;;;;6.97;4.40;;;;;;;24.57;54.61;99670.69;5092764;28;20020;-77
2023/09/27 01:32:59;;;;;;;6.75;4.20;;;;;;;24.58;54.63;99666.19;5093102;28;20024;-78
2023/09/27 01:35:24;;;;;;;9.02;4.70;;;;;;;24.57;55.04;99664.50;5093035;28;20034;-77
2023/09/27 01:37:50;;;;;;;7.57;4.15;;;;;;;24.54;54.61;99660.22;5093115;28;20020;-78
2023/09/27 01:40:17;;;;;;;6.88;4.15;;;;;;;24.55;54.39;99667.25;5093055;28;20369;-77
2023/09/27 01:42:43;;;;;;;9.07;4.28;;;;;;;24.53;54.68;99664.75;5091908;28;20020;-78
2023/09/27 01:45:12;;;;;;;6.55;4.38;;;;;;;24.53;54.73;99658.53;5092574;28;20446;-77
2023/09/27 01:47:38;;;;;;;6.00;4.38;;;;;;;24.52;54.64;99647.03;5092780;28;20480;-77
2023/09/27 01:50:06;;;;;;;6.90;4.35;;;;;;;24.52;54.59;99657.69;5092671;28;20023;-78
2023/09/27 01:52:32;;;;;;;6.40;4.35;;;;;;;24.51;54.60;99655.13;5092667;28;20028;-77
2023/09/27 01:54:58;;;;;;;6.85;4.05;;;;;;;24.51;54.61;99652.47;5092242;28;20445;-77
2023/09/27 01:57:23;;;;;;;6.18;3.88;;;;;;;24.49;54.63;99651.72;5092741;28;20027;-76
2023/09/27 01:59:49;;;;;;;6.88;4.10;;;;;;;24.49;54.51;99657.03;5092437;28;20486;-77
2023/09/27 02:02:14;;;;;;;6.55;4.07;;;;;;;24.48;54.79;99666.88;5092576;28;20028;-77
2023/09/27 02:04:39;;;;;;;6.57;4.25;;;;;;;24.48;54.52;99660.69;5092700;28;20059;-78
2023/09/27 02:07:05;;;;;;;5.55;3.65;;;;;;;24.46;54.72;99667.97;5092635;28;20020;-77
2023/09/27 02:09:30;;;;;;;5.88;3.83;;;;;;;24.46;54.30;99662.63;5092645;28;20468;-78
2023/09/27 02:11:55;;;;;;;6.22;4.30;;;;;;;24.46;54.52;99662.63;5092512;28;20039;-78
2023/09/27 02:14:21;;;;;;;6.63;4.40;;;;;;;24.44;54.74;99665.38;5091868;28;20020;-77
2023/09/27 02:16:47;;;;;;;6.45;4.00;;;;;;;24.42;54.61;99658.47;5092516;28;20027;-77
2023/09/27 02:19:13;;;;;;;6.07;4.15;;;;;;;24.43;54.38;99660.16;5092607;28;20030;-78
2023/09/27 02:21:39;;;;;;;5.88;4.13;;;;;;;24.42;54.50;99656.66;5092332;28;20383;-76
2023/09/27 02:24:08;;;;;;;7.97;4.05;;;;;;;24.40;54.39;99655.91;5092654;28;20030;-78
2023/09/27 02:26:34;;;;;;;6.78;4.15;;;;;;;24.39;54.43;99652.41;5092030;28;20031;-77
2023/09/27 02:29:00;;;;;;;6.70;4.30;;;;;;;24.38;54.46;99650.72;5092129;28;20051;-77
2023/09/27 02:31:25;;;;;;;5.50;3.55;;;;;;;24.38;54.40;99639.16;5092435;28;20099;-77
2023/09/27 02:33:51;;;;;;;6.13;3.88;;;;;;;24.37;54.32;99642.81;5092331;28;20024;-78
2023/09/27 02:36:17;;;;;;;6.53;4.10;;;;;;;24.37;54.55;99642.81;5092522;28;20421;-78
2023/09/27 02:38:43;;;;;;;7.38;4.10;;;;;;;24.35;54.46;99640.25;5092449;28;20028;-78
2023/09/27 02:41:08;;;;;;;8.02;4.30;;;;;;;24.34;54.52;99627.88;5092355;28;20111;-78
2023/09/27 02:43:34;;;;;;;6.38;3.95;;;;;;;24.33;54.43;99630.66;5092096;28;20036;-78
2023/09/27 02:46:00;;;;;;;5.57;3.90;;;;;;;24.33;54.31;99627.97;5092276;28;20492;-78
2023/09/27 02:48:25;;;;;;;7.50;3.88;;;;;;;24.33;54.28;99622.66;5092193;28;20500;-77
2023/09/27 02:50:53;;;;;;;5.65;3.90;;;;;;;24.31;54.64;99617.41;5092299;28;20025;-76
2023/09/27 02:53:19;;;;;;;5.95;3.53;;;;;;;24.31;54.11;99611.25;5093169;28;20084;-78
2023/09/27 02:55:44;;;;;;;7.45;3.45;;;;;;;24.30;54.42;99610.38;5096390;28;20531;-78
2023/09/27 02:58:10;;;;;;;6.28;4.13;;;;;;;24.29;54.67;99608.69;5095926;28;20464;-77
2023/09/27 03:00:36;;;;;;;5.07;3.75;;;;;;;24.28;54.50;99607.00;5096249;28;20027;-78
2023/09/27 03:03:03;;;;;;;6.30;4.05;;;;;;;24.27;54.19;99597.31;5095776;28;20036;-77
2023/09/27 03:05:30;;;;;;;5.72;3.58;;;;;;;24.26;54.30;99609.75;5095961;28;20035;-78
2023/09/27 03:07:57;;;;;;;6.57;3.72;;;;;;;24.27;54.41;99607.97;5087316;28;20024;-78
2023/09/27 03:10:22;;;;;;;7.15;4.07;;;;;;;24.25;54.60;99597.41;5086212;28;20028;-78
2023/09/27 03:12:51;;;;;;;4.65;3.40;;;;;;;24.26;54.23;99606.28;5095513;28;20020;-77
2023/09/27 03:15:17;;;;;;;5.90;3.50;;;;;;;24.23;54.23;99603.81;5095822;28;20020;-76
2023/09/27 03:17:44;;;;;;;5.40;3.67;;;;;;;24.22;54.43;99608.28;5094455;28;20555;-77
2023/09/27 03:20:15;;;;;;;6.25;3.58;;;;;;;24.22;54.25;99602.94;5095639;28;20249;-78
2023/09/27 03:22:42;;;;;;;7.78;4.10;;;;;;;24.21;54.45;99603.91;5094285;28;20391;-77
2023/09/27 03:25:09;;;;;;;5.25;3.90;;;;;;;24.22;54.00;99607.44;5095462;28;20111;-77
2023/09/27 03:27:35;;;;;;;6.88;3.90;;;;;;;24.20;54.44;99604.88;5095275;28;20026;-76
2023/09/27 03:30:00;;;;;;;5.82;3.90;;;;;;;24.21;54.41;99605.75;5095485;28;20020;-78
2023/09/27 03:32:26;;;;;;;6.78;3.85;;;;;;;24.19;54.30;99603.19;5095333;28;20453;-77
2023/09/27 03:34:52;;;;;;;6.03;4.28;;;;;;;24.19;54.21;99603.19;5094170;28;20028;-78
2023/09/27 03:37:18;;;;;;;5.63;3.80;;;;;;;24.17;54.28;99605.13;5095512;28;20024;-77
2023/09/27 03:39:43;;;;;;;5.32;3.60;;;;;;;24.17;54.10;99598.94;5093664;28;20020;-78
2023/09/27 03:42:09;;;;;;;6.03;3.75;;;;;;;24.17;54.00;99601.59;5095050;28;20039;-78
2023/09/27 03:44:35;;;;;;;5.20;3.47;;;;;;;24.17;53.95;99593.59;5095228;28;20023;-78
2023/09/27 03:47:01;;;;;;;6.32;3.65;;;;;;;24.15;54.33;99595.53;5095036;28;20074;-77
2023/09/27 03:49:26;;;;;;;4.95;3.30;;;;;;;24.16;53.96;99594.56;5095199;28;20031;-77
2023/09/27 03:51:51;;;;;;;5.32;3.55;;;;;;;24.15;54.17;99579.53;5095074;28;20483;-78
2023/09/27 03:54:17;;;;;;;5.40;3.45;;;;;;;24.13;53.90;99577.81;5094580;28;20107;-77
2023/09/27 03:56:42;;;;;;;5.07;3.42;;;;;;;24.15;53.89;99568.88;5094292;28;20406;-77
2023/09/27 03:59:08;;;;;;;5.70;3.40;;;;;;;24.13;53.97;99569.81;5094769;28;20023;-78
2023/09/27 04:01:33;;;;;;;5.85;3.30;;;;;;;24.12;53.92;99564.59;5094887;28;20020;-77
2023/09/27 04:03:59;;;;;;;4.68;3.25;;;;;;;24.11;53.93;99563.75;5094707;28;20032;-77
2023/09/27 04:06:24;;;;;;;6.55;3.30;;;;;;;24.12;53.93;99560.13;5093669;28;20024;-77
2023/09/27 04:08:51;;;;;;;6.15;3.60;;;;;;;24.10;53.85;99562.06;5093898;28;20026;-78
2023/09/27 04:11:16;;;;;;;5.15;3.30;;;;;;;24.09;54.02;99559.50;5092448;28;20552;-77
2023/09/27 04:13:42;;;;;;;5.68;3.40;;;;;;;24.10;53.65;99562.06;5093998;28;20030;-78
2023/09/27 04:16:07;;;;;;;5.57;3.75;;;;;;;24.08;53.75;99557.78;5094152;28;20024;-77
2023/09/27 04:18:33;;;;;;;5.38;3.22;;;;;;;24.07;53.93;99567.59;5094764;28;20051;-77
2023/09/27 04:21:08;;;;;;;5.05;3.00;;;;;;;24.08;53.86;99568.44;5094737;28;20357;-77
2023/09/27 04:23:34;;;;;;;5.00;3.47;;;;;;;24.06;53.90;99565.03;5094403;28;20031;-78
2023/09/27 04:26:00;;;;;;;6.25;3.78;;;;;;;24.04;53.84;99566.94;5094638;28;20039;-78
2023/09/27 04:28:26;;;;;;;5.13;3.38;;;;;;;24.06;54.07;99560.53;5094394;28;20024;-77
2023/09/27 04:30:52;;;;;;;4.50;3.08;;;;;;;24.04;53.92;99562.47;5094506;28;20023;-77
2023/09/27 04:33:18;;;;;;;5.43;3.33;;;;;;;24.04;54.02;99558.94;5094150;28;20420;-78
2023/09/27 04:35:43;;;;;;;5.35;3.47;;;;;;;24.03;53.75;99559.91;5093857;28;20443;-79
2023/09/27 04:38:10;;;;;;;5.47;3.63;;;;;;;24.03;53.70;99565.22;5093647;28;20098;-77
2023/09/27 04:40:35;;;;;;;5.70;3.60;;;;;;;24.02;53.94;99551.03;5094185;28;20016;-77
2023/09/27 04:43:01;;;;;;;4.40;2.80;;;;;;;24.00;53.52;99560.97;5094029;28;20503;-78
2023/09/27 04:45:26;;;;;;;5.57;3.20;;;;;;;24.03;53.78;99562.56;5093966;28;20027;-78
2023/09/27 04:47:52;;;;;;;5.22;2.83;;;;;;;24.04;53.59;99567.78;5102111;28;20035;-77
2023/09/27 04:50:17;;;;;;;4.75;3.20;;;;;;;24.03;53.57;99566.09;5109611;28;20019;-77
2023/09/27 04:52:43;;;;;;;5.70;3.28;;;;;;;24.00;53.85;99558.31;5093618;28;20027;-78
2023/09/27 04:55:09;;;;;;;5.88;3.65;;;;;;;24.00;53.78;99560.97;5093986;28;20028;-78
2023/09/27 04:57:37;;;;;;;5.82;3.20;;;;;;;23.99;53.89;99559.28;5093740;28;20397;-78
2023/09/27 05:00:04;;;;;;;5.32;2.80;;;;;;;23.98;53.69;99562.91;5093713;28;20020;-78
2023/09/27 05:02:29;;;;;;;5.72;3.13;;;;;;;23.96;53.82;99555.03;5093725;28;20020;-77
2023/09/27 05:04:55;;;;;;;4.95;3.55;;;;;;;23.95;53.81;99553.31;5093458;28;20066;-78
2023/09/27 05:07:20;;;;;;;5.28;3.63;;;;;;;23.95;53.71;99560.44;5092543;28;20458;-79
2023/09/27 05:09:47;;;;;;;4.93;3.17;;;;;;;23.93;53.67;99560.59;5093462;28;20036;-78
2023/09/27 05:12:15;;;;;;;5.28;3.20;;;;;;;23.95;53.40;99563.13;5093156;28;20027;-77
2023/09/27 05:14:41;;;;;;;6.78;3.53;;;;;;;23.97;53.65;99553.22;5104348;28;20020;-77
2023/09/27 05:17:06;;;;;;;6.47;3.40;;;;;;;23.96;53.91;99554.16;5099052;28;20039;-77
2023/09/27 05:19:32;;;;;;;4.95;2.83;;;;;;;23.97;53.94;99550.56;5101694;28;20391;-77
2023/09/27 05:21:59;;;;;;;4.53;2.83;;;;;;;23.98;53.83;99546.91;5097353;28;20024;-76
2023/09/27 05:24:24;;;;;;;5.63;3.25;;;;;;;23.95;54.20;99547.13;5102764;28;20020;-78
2023/09/27 05:26:50;;;;;;;6.90;3.50;;;;;;;23.96;54.28;99549.69;5100939;28;20432;-77
2023/09/27 05:29:15;;;;;;;7.90;3.38;;;;;;;23.96;54.40;99548.81;5103103;28;20079;-76
2023/09/27 05:31:44;;;;;;;10.23;3.60;;;;;;;23.95;54.24;99541.78;5095943;28;20377;-77
2023/09/27 05:34:09;;;;;;;6.25;3.55;;;;;;;23.95;54.17;99542.66;5098717;28;20027;-77
2023/09/27 05:36:35;;;;;;;5.70;3.53;;;;;;;23.98;53.84;99533.59;5100365;28;20020;-76
2023/09/27 05:39:02;;;;;;;9.98;3.78;;;;;;;23.96;54.11;99528.38;5101444;28;20027;-77
2023/09/27 05:41:28;;;;;;;8.30;3.55;;;;;;;23.96;54.03;99523.03;5101462;28;20107;-76
2023/09/27 05:43:53;;;;;;;6.57;3.10;;;;;;;23.97;54.26;99526.56;5103355;28;20016;-76
2023/09/27 05:46:19;;;;;;;8.82;3.60;;;;;;;23.95;54.20;99532.00;5091959;28;20028;-78
2023/09/27 05:48:44;;;;;;;7.32;3.38;;;;;;;23.95;54.16;99532.00;5091710;28;20020;-76
2023/09/27 05:51:10;;;;;;;7.47;3.10;;;;;;;23.96;54.28;99531.03;5088601;28;20035;-75
2023/09/27 05:53:35;;;;;;;7.63;3.58;;;;;;;23.95;54.03;99531.13;5092759;28;20028;-75
2023/09/27 05:56:03;;;;;;;7.43;3.00;;;;;;;23.94;54.00;99534.78;5099774;28;20095;-75
2023/09/27 05:58:33;;;;;;;11.85;4.25;;;;;;;23.93;53.89;99533.06;5097902;28;20019;-75
2023/09/27 06:01:02;;;;;;;6.57;3.40;;;;;;;23.92;54.15;99534.88;5099763;28;20057;-76
2023/09/27 06:03:30;;;;;;;10.63;3.75;;;;;;;23.94;54.03;99535.63;5097801;28;20043;-75
2023/09/27 06:05:56;;;;;;;7.93;3.58;;;;;;;23.93;54.03;99547.25;5096452;28;20106;-76
2023/09/27 06:08:22;;;;;;;5.75;3.47;;;;;;;23.93;53.94;99549.06;5101238;28;20585;-76
2023/09/27 06:10:48;;;;;;;9.88;3.47;;;;;;;23.94;53.83;99545.44;5101615;28;20022;-75
2023/09/27 06:13:14;;;;;;;5.68;3.50;;;;;;;23.93;53.96;99549.06;5101570;28;20099;-74
2023/09/27 06:15:41;;;;;;;6.55;3.47;;;;;;;23.92;53.72;99548.19;5100939;28;20059;-75
2023/09/27 06:18:06;;;;;;;6.32;3.50;;;;;;;23.93;53.74;99543.72;5094874;28;20110;-75
2023/09/27 06:20:32;;;;;;;6.60;3.58;;;;;;;23.92;54.00;99553.53;5105951;28;20102;-76
2023/09/27 06:23:03;;;;;;;7.38;3.50;;;;;;;23.92;53.71;99552.69;5102766;28;20095;-75
2023/09/27 06:25:30;;;;;;;7.22;3.53;;;;;;;23.93;53.67;99551.72;5098723;28;20043;-75
2023/09/27 06:27:55;;;;;;;6.57;3.53;;;;;;;23.92;53.59;99545.53;5101648;28;20026;-75
2023/09/27 06:30:22;;;;;;;6.63;4.00;;;;;;;23.90;53.62;99550.13;5102769;28;20619;-75
2023/09/27 06:32:48;;;;;;;9.20;3.80;;;;;;;23.91;53.74;99551.84;5098430;28;20420;-75
2023/09/27 06:35:14;;;;;;;6.90;3.50;;;;;;;23.92;53.52;99555.38;5106700;28;20106;-75
2023/09/27 06:37:44;;;;;;;7.22;3.33;;;;;;;23.92;54.03;99555.38;5094611;28;20020;-75
2023/09/27 06:40:16;;;;;;;7.03;4.10;;;;;;;23.90;53.68;99555.47;5092054;28;20027;-75
2023/09/27 06:42:45;;;;;;;6.45;3.78;;;;;;;23.90;53.71;99549.28;5092020;28;20502;-74
2023/09/27 06:45:12;;;;;;;8.60;4.43;;;;;;;23.90;54.07;99554.59;5091534;28;20107;-75
2023/09/27 06:47:41;;;;;;;8.45;3.58;;;;;;;23.89;53.95;99559.09;5091864;28;20066;-75
2023/09/27 06:50:08;;;;;;;8.57;3.83;;;;;;;23.90;54.02;99565.25;5091760;28;20024;-74
2023/09/27 06:52:34;;;;;;;8.05;3.67;;;;;;;23.90;53.86;99555.47;5090584;28;20096;-74
2023/09/27 06:55:00;;;;;;;7.43;3.75;;;;;;;23.90;54.01;99563.47;5092161;28;20095;-74
2023/09/27 06:57:26;;;;;;;7.00;3.80;;;;;;;23.90;53.92;99559.94;5092186;28;20116;-75
2023/09/27 06:59:51;;;;;;;5.53;3.40;;;;;;;23.89;53.94;99558.22;5092004;28;20107;-74
2023/09/27 07:02:17;;;;;;;6.22;3.45;;;;;;;23.89;53.55;99568.91;5091713;28;20027;-75
2023/09/27 07:04:42;;;;;;;7.68;3.60;;;;;;;23.89;53.63;99567.09;5091666;28;20016;-74
2023/09/27 07:07:09;;;;;;;6.40;3.55;;;;;;;23.87;53.78;99577.84;5091729;28;20024;-75
2023/09/27 07:09:34;;;;;;;8.05;4.10;;;;;;;23.86;53.67;99581.47;5091841;28;20027;-75
2023/09/27 07:12:00;;;;;;;6.30;3.83;;;;;;;23.87;53.67;99577.84;5091794;28;20023;-74
2023/09/27 07:14:26;;;;;;;7.30;3.78;;;;;;;23.86;53.96;99576.16;5092078;28;20023;-74
2023/09/27 07:16:51;;;;;;;8.63;4.10;;;;;;;23.85;53.91;99579.78;5091957;28;20034;-74
2023/09/27 07:19:17;;;;;;;6.30;3.33;;;;;;;23.86;53.75;99568.16;5091518;28;20016;-75
2023/09/27 07:21:44;;;;;;;6.68;3.53;;;;;;;23.86;53.71;99569.97;5091889;28;20028;-75
2023/09/27 07:24:10;;;;;;;7.20;3.65;;;;;;;23.85;53.82;99573.59;5091810;28;20024;-74
2023/09/27 07:26:41;;;;;;;6.03;3.65;;;;;;;23.85;53.78;99571.78;5091815;28;20082;-75
2023/09/27 07:29:07;;;;;;;5.25;3.17;;;;;;;23.85;53.59;99569.13;5091840;28;20224;-74
2023/09/27 07:31:32;;;;;;;5.97;3.38;;;;;;;23.86;53.70;99560.16;5091731;28;20494;-75
2023/09/27 07:33:58;;;;;;;5.22;3.50;;;;;;;23.86;53.25;99560.16;5094696;28;20132;-74
2023/09/27 07:36:26;;;;;;;6.57;3.88;;;;;;;23.87;53.76;99550.34;5091648;28;20028;-75
2023/09/27 07:38:52;;;;;;;6.85;3.38;;;;;;;23.86;53.81;99551.31;5091534;28;20032;-75
2023/09/27 07:41:18;;;;;;;6.22;3.78;;;;;;;23.89;53.33;99559.09;5091935;28;20031;-74
2023/09/27 07:43:43;;;;;;;6.50;3.58;;;;;;;23.90;53.71;99554.59;5095081;28;20024;-75
2023/09/27 07:46:12;;;;;;;6.22;3.88;;;;;;;23.91;53.34;99556.34;5127844;27;20050;-75
2023/09/27 07:48:39;;;;;;;5.97;3.50;;;;;;;23.89;53.47;99555.56;5094965;28;20032;-75
2023/09/27 07:51:11;;;;;;;6.22;3.65;;;;;;;23.89;53.61;99555.56;5094977;28;20031;-74
2023/09/27 07:53:37;;;;;;;8.27;4.00;;;;;;;23.86;53.42;99552.16;5095298;28;20040;-75
2023/09/27 07:56:03;;;;;;;6.63;3.67;;;;;;;23.87;53.57;99559.19;5093419;28;20024;-75
2023/09/27 07:58:29;;;;;;;7.60;3.95;;;;;;;23.86;53.52;99546.84;5093563;28;20119;-74
2023/09/27 08:00:55;;;;;;;6.75;3.90;;;;;;;23.85;53.62;99555.81;5094190;28;20040;-74
2023/09/27 08:03:21;;;;;;;5.82;3.28;;;;;;;23.85;53.40;99558.47;5094754;28;20048;-75
2023/09/27 08:05:50;;;;;;;6.45;3.70;;;;;;;23.85;53.61;99558.47;5094669;28;20435;-75
2023/09/27 08:08:15;;;;;;;5.60;3.47;;;;;;;23.87;53.31;99550.34;5094803;28;20059;-74
2023/09/27 08:10:45;;;;;;;4.97;3.40;;;;;;;23.87;53.32;99547.69;5094868;28;20494;-75
2023/09/27 08:13:15;;;;;;;7.45;3.50;;;;;;;23.87;53.42;99547.69;5094094;28;20476;-75
2023/09/27 08:15:42;;;;;;;6.70;3.80;;;;;;;23.90;53.34;99554.59;5094189;28;20099;-75
2023/09/27 08:18:07;;;;;;;8.23;4.15;;;;;;;23.90;53.16;99555.47;5094725;28;20107;-75
2023/09/27 08:20:35;;;;;;;5.78;3.80;;;;;;;23.91;53.27;99551.00;5094626;28;20150;-74
2023/09/27 08:23:03;;;;;;;6.47;3.85;;;;;;;23.92;53.16;99547.38;5094547;28;20024;-74
2023/09/27 08:25:28;;;;;;;7.30;3.90;;;;;;;23.90;53.31;99539.47;5094522;28;20126;-75
2023/09/27 08:27:55;;;;;;;8.07;3.47;;;;;;;23.91;53.07;99545.66;5094503;28;20482;-74
2023/09/27 08:30:21;;;;;;;7.75;3.83;;;;;;;23.93;53.03;99551.72;5093860;28;20498;-74
2023/09/27 08:32:46;;;;;;;5.80;3.30;;;;;;;23.93;53.03;99539.28;5094294;28;20020;-75
2023/09/27 08:35:12;;;;;;;5.22;3.45;;;;;;;23.94;53.15;99542.78;5092561;28;20031;-75
2023/09/27 08:37:38;;;;;;;8.07;3.38;;;;;;;23.95;52.91;99537.34;5094177;28;20024;-74
2023/09/27 08:40:12;;;;;;;6.03;3.63;;;;;;;23.96;53.00;99538.16;5093981;28;20387;-75
2023/09/27 08:42:39;;;;;;;5.55;3.63;;;;;;;23.97;52.81;99539.91;5094099;28;20158;-74
2023/09/27 08:45:10;;;;;;;6.07;3.20;;;;;;;23.98;52.83;99538.94;5093363;28;20028;-75
2023/09/27 08:47:38;;;;;;;6.05;3.67;;;;;;;24.02;52.75;99543.03;5093603;28;20028;-73
2023/09/27 08:50:04;;;;;;;6.18;3.65;;;;;;;24.01;52.63;99530.69;5094190;28;20059;-74
2023/09/27 08:52:30;;;;;;;6.55;3.75;;;;;;;24.03;52.62;99539.44;5093394;28;20047;-75
2023/09/27 08:54:56;;;;;;;6.00;3.60;;;;;;;24.05;52.78;99542.84;5093872;28;20031;-75
2023/09/27 08:57:26;;;;;;;6.10;3.40;;;;;;;24.07;52.74;99535.59;5093652;28;20032;-75
2023/09/27 08:59:52;;;;;;;6.05;3.17;;;;;;;24.07;52.84;99545.41;5093261;28;20034;-74
2023/09/27 09:02:20;;;;;;;5.22;3.13;;;;;;;24.08;52.78;99548.00;5093364;28;20032;-75
2023/09/27 09:04:46;;;;;;;7.38;3.55;;;;;;;24.10;52.63;99545.19;5093433;28;20035;-75
2023/09/27 09:07:11;;;;;;;5.75;3.45;;;;;;;24.10;52.47;99535.41;5093345;28;20028;-75
2023/09/27 09:09:39;;;;;;;5.53;3.50;;;;;;;24.11;52.52;99533.56;5093586;28;20032;-74
2023/09/27 09:12:09;;;;;;;5.75;3.42;;;;;;;24.14;52.50;99538.69;5093521;28;20044;-75
2023/09/27 09:14:38;;;;;;;4.88;2.95;;;;;;;24.13;52.41;99534.31;5093265;28;20091;-75
2023/09/27 09:17:03;;;;;;;6.32;3.25;;;;;;;24.13;52.57;99535.16;5093467;28;20028;-75
2023/09/27 09:19:31;;;;;;;4.85;3.00;;;;;;;24.15;52.36;99531.53;5093329;28;20035;-75
2023/09/27 09:22:11;;;;;;;5.95;3.38;;;;;;;24.17;52.34;99533.13;5092992;28;20032;-74
2023/09/27 09:24:37;;;;;;;6.35;3.67;;;;;;;24.16;52.53;99519.91;5093238;28;20058;-75
2023/09/27 09:27:16;;;;;;;4.65;2.53;;;;;;;24.17;52.80;99526.94;5093142;28;20095;-74
2023/09/27 09:29:49;;;;;;;6.20;3.22;;;;;;;24.20;52.59;99524.03;5092847;28;20020;-75
2023/09/27 09:32:23;;;;;;;5.22;2.90;;;;;;;24.21;52.52;99520.44;5092990;28;20108;-74
2023/09/27 09:34:50;;;;;;;5.05;2.80;;;;;;;24.21;52.34;99510.59;5092857;28;20107;-74
2023/09/27 09:37:33;;;;;;;5.18;3.17;;;;;;;24.22;52.49;99512.28;5093095;28;20020;-75
2023/09/27 09:40:14;;;;;;;5.97;3.58;;;;;;;24.22;52.55;99506.13;5093153;28;20035;-75
2023/09/27 09:42:41;;;;;;;5.78;2.97;;;;;;;24.24;52.29;99504.19;5092598;28;20050;-75
2023/09/27 09:45:11;;;;;;;5.53;3.00;;;;;;;24.24;52.43;99504.19;5092584;28;20036;-75
2023/09/27 09:47:39;;;;;;;5.43;3.10;;;;;;;24.24;52.34;99498.84;5092786;28;20077;-75
2023/09/27 09:50:06;;;;;;;7.20;3.10;;;;;;;24.26;52.54;99499.63;5092889;28;20046;-75
2023/09/27 09:52:35;;;;;;;5.68;3.15;;;;;;;24.27;52.23;99499.47;5092587;28;20035;-75
2023/09/27 09:55:03;;;;;;;6.22;3.50;;;;;;;24.30;52.37;99493.06;5092568;28;20073;-75
2023/09/27 09:57:36;;;;;;;5.88;2.92;;;;;;;24.32;52.17;99496.50;5092226;28;20031;-74
2023/09/27 10:00:16;;;;;;;5.68;3.17;;;;;;;24.31;52.30;99500.09;5091216;28;20042;-74
2023/09/27 10:02:59;;;;;;;5.00;2.92;;;;;;;24.32;52.33;99507.16;5092340;28;20116;-74
2023/09/27 10:05:25;;;;;;;4.68;2.72;;;;;;;24.33;52.26;99497.31;5092402;28;20028;-75
2023/09/27 10:07:51;;;;;;;4.78;2.92;;;;;;;24.33;51.96;99498.19;5092681;28;20416;-74
2023/09/27 10:10:18;;;;;;;4.43;2.50;;;;;;;24.34;51.97;99497.22;5092516;28;20106;-74
2023/09/27 10:12:44;;;;;;;5.47;2.85;;;;;;;24.35;52.31;99490.06;5092152;28;20048;-75
2023/09/27 10:15:11;;;;;;;4.68;2.92;;;;;;;24.36;52.20;99492.59;5092297;28;20020;-75
2023/09/27 10:17:37;;;;;;;3.65;2.55;;;;;;;24.37;52.09;99488.97;5090865;28;20032;-75
2023/09/27 10:20:12;;;;;;;6.45;3.20;;;;;;;24.38;52.16;99489.81;5092524;28;20100;-75
2023/09/27 10:22:43;;;;;;;5.10;3.30;;;;;;;24.40;52.05;99485.22;5092428;28;20070;-75
2023/09/27 10:25:24;;;;;;;4.93;2.53;;;;;;;24.42;52.03;99501.13;5092166;28;20035;-75
2023/09/27 10:28:01;;;;;;;4.68;2.60;;;;;;;24.43;52.01;99487.66;5091963;28;20024;-74
2023/09/27 10:30:44;;;;;;;5.15;2.78;;;;;;;24.43;51.87;99500.13;5091051;28;20115;-75
2023/09/27 10:33:15;;;;;;;4.43;2.80;;;;;;;24.45;51.77;99492.91;5092252;28;20360;-74
2023/09/27 10:35:46;;;;;;;5.85;2.63;;;;;;;24.45;51.44;99495.56;5092236;28;20024;-75
2023/09/27 10:38:12;;;;;;;4.55;2.30;;;;;;;24.45;51.85;99496.41;5092225;28;20464;-75
2023/09/27 10:40:42;;;;;;;3.65;2.13;;;;;;;24.45;51.50;99484.91;5091531;28;20530;-75
2023/09/27 10:43:08;;;;;;;5.00;2.53;;;;;;;24.46;51.98;99491.94;5091916;28;20028;-75
2023/09/27 10:45:34;;;;;;;4.72;2.40;;;;;;;24.46;51.70;99484.75;5092085;28;20069;-76
2023/09/27 10:48:18;;;;;;;4.45;2.42;;;;;;;24.47;51.52;99467.81;5092191;28;20483;-73
2023/09/27 10:50:56;;;;;;;3.70;2.30;;;;;;;24.48;51.66;99465.97;5092335;28;20032;-75
2023/09/27 10:53:22;;;;;;;5.35;2.95;;;;;;;24.50;51.75;99456.06;5091881;28;20049;-74
2023/09/27 10:55:48;;;;;;;4.60;2.67;;;;;;;24.48;51.64;99450.84;5091440;28;20078;-74
2023/09/27 10:58:17;;;;;;;5.57;2.45;;;;;;;24.49;51.30;99439.19;5092132;28;20023;-75
2023/09/27 11:00:56;;;;;;;4.25;2.30;;;;;;;24.51;51.61;99444.41;5091823;28;20028;-74
2023/09/27 11:03:28;;;;;;;4.32;2.47;;;;;;;24.51;51.46;99442.59;5091675;28;20044;-75
2023/09/27 11:05:53;;;;;;;4.07;2.45;;;;;;;24.52;51.49;99443.44;5091791;28;20055;-75
2023/09/27 11:08:21;;;;;;;6.78;2.83;;;;;;;24.54;51.39;99444.16;5091783;28;20391;-74
2023/09/27 11:10:47;;;;;;;4.70;2.60;;;;;;;24.54;51.33;99441.50;5091619;28;20024;-75
2023/09/27 11:13:13;;;;;;;4.93;2.13;;;;;;;24.54;51.20;99445.03;5090541;28;20137;-75
2023/09/27 11:15:40;;;;;;;3.45;2.00;;;;;;;24.57;51.25;99443.09;5093899;28;20035;-74
2023/09/27 11:18:10;;;;;;;3.75;2.30;;;;;;;24.57;51.33;99445.75;5095708;28;20388;-75
2023/09/27 11:20:36;;;;;;;3.53;2.03;;;;;;;24.58;51.32;99437.63;5095482;28;20020;-75
2023/09/27 11:23:02;;;;;;;3.10;1.80;;;;;;;24.59;51.21;99443.84;5095842;28;20388;-75
2023/09/27 11:25:31;;;;;;;3.72;2.10;;;;;;;24.59;51.02;99433.16;5095042;28;20031;-74
2023/09/27 11:27:56;;;;;;;4.82;2.47;;;;;;;24.61;51.16;99437.41;5095698;28;20024;-75
2023/09/27 11:30:32;;;;;;;4.15;1.92;;;;;;;24.62;51.06;99428.44;5096427;28;20019;-75
2023/09/27 11:32:59;;;;;;;;;;;;;;;24.64;51.03;99426.50;5096004;28;20031;-73